Terminal Aerodrome Forecast
Issued by NWS

Home | Current Version | Previous Version | Text Only | Print | Product List | Glossary On
Versions: 1 2 3 4 5 6 7 8 9 10 11 12 13 14
000
FTUS46 KMTR 030500 RRA
TAFSJC
TAF
KSJC 030545Z 0306/0406 29005KT P6SM FEW040
     FM030700 17003KT P6SM SKC
     FM031700 24004KT P6SM SKC
     FM032100 30008KT P6SM FEW200=

USA.gov is the U.S. government's official web portal to all federal, state and local government web resources and services.